createdAt,value
2022-12-01T00:02:51.687Z,2.13
2022-12-01T00:03:39.035Z,2.13
2022-12-01T00:04:25.844Z,2.16
2022-12-01T00:05:12.589Z,2.13
2022-12-01T00:06:01.312Z,2.13
2022-12-01T00:06:48.433Z,2.15
2022-12-01T00:07:35.327Z,2.19
2022-12-01T00:08:22.353Z,2.16
2022-12-01T00:09:28.282Z,2.18
2022-12-01T00:10:27.367Z,2.07
2022-12-01T00:11:14.240Z,2.08
2022-12-01T00:12:01.272Z,2.04
2022-12-01T00:13:49.493Z,2.01
2022-12-01T00:15:53.433Z,1.99
2022-12-01T00:16:41.359Z,2.09
2022-12-01T00:17:30.391Z,2.14
2022-12-01T00:18:17.516Z,2.20
2022-12-01T00:19:04.542Z,2.15
2022-12-01T00:19:51.423Z,2.02
2022-12-01T00:23:57.992Z,1.96
2022-12-01T00:24:45.432Z,2.06
2022-12-01T00:25:32.620Z,2.04
2022-12-01T00:26:20.402Z,2.05
2022-12-01T00:27:07.230Z,2.10
2022-12-01T00:27:54.776Z,2.09
2022-12-01T00:28:41.957Z,2.06
2022-12-01T00:29:28.920Z,2.00
2022-12-01T00:30:16.184Z,1.90
2022-12-01T00:31:07.831Z,1.76
2022-12-01T00:31:54.755Z,1.61
2022-12-01T00:32:41.757Z,1.57
2022-12-01T00:33:28.734Z,1.63
2022-12-01T00:34:23.175Z,1.68
2022-12-01T00:35:10.219Z,1.65
2022-12-01T00:36:00.664Z,1.67
2022-12-01T00:36:47.438Z,1.61
2022-12-01T00:37:35.467Z,1.41
2022-12-01T00:38:22.303Z,1.46
2022-12-01T00:39:10.035Z,1.50
2022-12-01T00:39:57.537Z,1.46
2022-12-01T00:40:44.405Z,1.48
2022-12-01T00:41:31.237Z,1.51
2022-12-01T00:42:20.969Z,1.49
2022-12-01T00:43:07.965Z,1.40
2022-12-01T00:43:54.984Z,1.33
2022-12-01T00:44:41.854Z,1.36
2022-12-01T00:45:28.678Z,1.33
2022-12-01T00:46:15.721Z,1.28
2022-12-01T00:47:02.630Z,1.24
2022-12-01T00:47:49.477Z,1.24
2022-12-01T00:48:37.290Z,1.13
2022-12-01T00:49:24.235Z,1.18
2022-12-01T00:50:11.484Z,1.17
2022-12-01T00:50:58.357Z,1.15
2022-12-01T00:51:45.373Z,1.12
2022-12-01T00:52:32.236Z,1.20
2022-12-01T00:53:19.514Z,1.26
2022-12-01T00:54:06.363Z,1.25
2022-12-01T00:54:53.120Z,1.26
2022-12-01T00:55:40.538Z,1.18
2022-12-01T00:56:27.387Z,1.18
2022-12-01T00:57:14.242Z,1.22
2022-12-01T00:58:01.052Z,1.18
2022-12-01T00:58:47.906Z,1.10
2022-12-01T00:59:35.978Z,1.06
2022-12-01T01:00:22.826Z,1.11
2022-12-01T01:01:09.737Z,1.05
2022-12-01T01:01:56.768Z,1.05
2022-12-01T01:02:44.103Z,1.07
2022-12-01T01:03:32.384Z,1.09
2022-12-01T01:04:19.643Z,1.07
2022-12-01T01:05:07.499Z,1.06
2022-12-01T01:05:54.544Z,1.07
2022-12-01T01:06:43.503Z,1.13
2022-12-01T01:07:30.929Z,1.16
2022-12-01T01:08:17.821Z,1.11
2022-12-01T01:09:04.729Z,0.99
2022-12-01T01:09:51.569Z,0.95
2022-12-01T01:10:39.682Z,0.88
2022-12-01T01:11:26.554Z,0.82
2022-12-01T01:12:13.363Z,0.92
2022-12-01T01:13:00.287Z,1.00
2022-12-01T01:13:47.313Z,0.97
2022-12-01T01:14:34.209Z,0.92
2022-12-01T01:15:21.881Z,0.95
2022-12-01T01:16:22.077Z,0.96
2022-12-01T01:17:09.147Z,0.89
2022-12-01T01:17:55.963Z,0.86
2022-12-01T01:18:43.043Z,0.95
2022-12-01T01:19:29.949Z,0.95
2022-12-01T01:20:16.870Z,0.88
2022-12-01T01:21:08.876Z,0.85
2022-12-01T01:21:55.732Z,0.88
2022-12-01T01:22:42.591Z,0.80
2022-12-01T01:23:29.618Z,0.77
2022-12-01T01:24:16.471Z,0.81
2022-12-01T01:25:03.385Z,0.81
2022-12-01T01:25:50.212Z,0.79
2022-12-01T01:26:38.004Z,0.81
2022-12-01T01:27:24.865Z,0.70
2022-12-01T01:28:11.674Z,0.76
2022-12-01T01:29:00.385Z,0.77
2022-12-01T01:29:47.577Z,0.85
2022-12-01T01:30:34.841Z,0.73
2022-12-01T01:31:23.424Z,0.73
2022-12-01T01:32:10.256Z,0.73
2022-12-01T01:32:57.112Z,0.68
2022-12-01T01:33:44.565Z,0.73
2022-12-01T01:34:31.438Z,0.70
2022-12-01T01:35:18.279Z,0.66
2022-12-01T01:36:05.808Z,0.69
2022-12-01T01:36:52.601Z,0.59
2022-12-01T01:37:39.491Z,0.63
2022-12-01T01:38:27.094Z,0.63
2022-12-01T01:39:13.954Z,0.69
2022-12-01T01:40:00.778Z,0.70
2022-12-01T01:40:47.627Z,0.65
2022-12-01T01:41:34.546Z,0.60
2022-12-01T01:42:22.256Z,0.56
2022-12-01T01:43:38.208Z,0.53
2022-12-01T01:44:50.963Z,0.54
2022-12-01T01:45:37.980Z,0.40
2022-12-01T01:46:30.240Z,0.32
2022-12-01T01:47:22.572Z,0.37
2022-12-01T01:48:10.992Z,0.33
2022-12-01T01:49:00.848Z,0.36
2022-12-01T01:49:48.152Z,0.32
2022-12-01T01:50:35.397Z,0.34
2022-12-01T01:51:30.311Z,0.39
2022-12-01T01:52:17.876Z,0.44
2022-12-01T01:53:09.550Z,0.39
2022-12-01T01:53:59.521Z,0.44
2022-12-01T01:54:48.672Z,0.43
2022-12-01T01:55:36.052Z,0.39
2022-12-01T01:56:23.438Z,0.41
2022-12-01T01:57:12.370Z,0.42
2022-12-01T01:58:00.010Z,0.38
2022-12-01T01:58:47.561Z,0.38
2022-12-01T01:59:47.531Z,0.45
2022-12-01T02:00:34.520Z,0.38
2022-12-01T02:01:22.131Z,0.38
2022-12-01T02:02:11.230Z,0.39
2022-12-01T02:02:58.451Z,0.30
2022-12-01T02:03:45.835Z,0.33
2022-12-01T02:04:37.513Z,0.36
2022-12-01T02:05:27.313Z,0.29
2022-12-01T02:06:14.431Z,0.26
2022-12-01T02:07:01.362Z,0.26
2022-12-01T02:07:48.800Z,0.27
2022-12-01T02:08:36.588Z,0.25
2022-12-01T02:09:23.438Z,0.31
2022-12-01T02:10:12.366Z,0.30
2022-12-01T02:11:06.747Z,0.38
2022-12-01T02:12:15.393Z,0.39
2022-12-01T02:13:13.149Z,0.41
2022-12-01T02:14:44.440Z,0.42
2022-12-01T02:15:39.566Z,0.39
2022-12-01T02:16:49.147Z,0.34
2022-12-01T02:18:02.138Z,0.40
2022-12-01T02:19:25.914Z,0.44
2022-12-01T02:20:59.763Z,0.49
2022-12-01T02:22:37.183Z,0.52
2022-12-01T02:23:38.946Z,0.51
2022-12-01T02:24:48.714Z,0.56
2022-12-01T02:26:03.677Z,0.46
2022-12-01T02:27:02.060Z,0.40
2022-12-01T02:28:14.582Z,0.37
2022-12-01T02:29:39.150Z,0.45
2022-12-01T02:30:41.578Z,0.43
2022-12-01T02:31:40.460Z,0.39
2022-12-01T02:32:40.540Z,0.27
2022-12-01T02:33:35.458Z,0.19
2022-12-01T02:34:27.874Z,0.25
2022-12-01T02:35:33.133Z,0.24
2022-12-01T02:36:36.206Z,0.21
2022-12-01T02:37:52.529Z,0.16
2022-12-01T02:38:52.244Z,0.01
2022-12-01T02:39:45.552Z,0.08
2022-12-01T02:40:44.177Z,0.13
2022-12-01T02:41:41.597Z,0.10
2022-12-01T02:42:53.882Z,0.08
2022-12-01T02:44:07.879Z,0.08
2022-12-01T02:44:55.160Z,0.11
2022-12-01T02:46:11.601Z,0.05
2022-12-01T02:47:10.670Z,0.06
2022-12-01T02:48:01.849Z,0.09
2022-12-01T02:48:50.682Z,0.09
2022-12-01T02:49:42.409Z,0.04
2022-12-01T02:50:31.878Z,0.06
2022-12-01T02:51:31.387Z,-0.12
2022-12-01T02:52:19.272Z,-0.10
2022-12-01T02:53:08.437Z,-0.06
2022-12-01T02:53:56.705Z,-0.25
2022-12-01T02:54:44.862Z,-0.24
2022-12-01T02:55:31.786Z,-0.28
2022-12-01T02:56:21.526Z,-0.27
2022-12-01T02:57:12.085Z,-0.27
2022-12-01T02:57:58.835Z,-0.45
2022-12-01T02:58:45.707Z,-0.45
2022-12-01T02:59:32.630Z,-0.32
2022-12-01T03:00:19.740Z,-0.44
2022-12-01T03:01:06.568Z,-0.61
2022-12-01T03:02:13.622Z,-0.60
2022-12-01T03:03:09.689Z,-0.66
2022-12-01T03:04:01.249Z,-0.63
2022-12-01T03:04:59.029Z,-0.60
2022-12-01T03:06:02.249Z,-0.57
2022-12-01T03:07:04.238Z,-0.53
2022-12-01T03:08:13.918Z,-0.60
2022-12-01T03:09:11.015Z,-0.57
2022-12-01T03:10:12.823Z,-0.60
2022-12-01T03:11:00.375Z,-0.52
2022-12-01T03:11:59.826Z,-0.50
2022-12-01T03:13:09.028Z,-0.50
2022-12-01T03:14:10.774Z,-0.66
2022-12-01T03:15:16.173Z,-0.68
2022-12-01T03:16:20.622Z,-0.66
2022-12-01T03:17:16.301Z,-0.65
2022-12-01T03:18:34.391Z,-0.60
2022-12-01T03:19:38.177Z,-0.57
2022-12-01T03:20:42.772Z,-0.49
2022-12-01T03:21:42.814Z,-0.52
2022-12-01T03:22:37.739Z,-0.47
2022-12-01T03:23:27.994Z,-0.59
2022-12-01T03:24:16.422Z,-0.60
2022-12-01T03:25:04.921Z,-0.64
2022-12-01T03:25:52.863Z,-0.70
2022-12-01T03:26:41.961Z,-0.68
2022-12-01T03:27:32.081Z,-0.68
2022-12-01T03:28:22.996Z,-0.66
2022-12-01T03:29:14.195Z,-0.66
2022-12-01T03:30:02.859Z,-0.63
2022-12-01T03:30:52.947Z,-0.62
2022-12-01T03:31:44.157Z,-0.66
2022-12-01T03:32:32.188Z,-0.70
2022-12-01T03:33:27.382Z,-0.69
2022-12-01T03:34:29.694Z,-0.60
2022-12-01T03:35:23.841Z,-0.64
2022-12-01T03:36:15.597Z,-0.69
2022-12-01T03:37:07.302Z,-0.70
2022-12-01T03:38:00.755Z,-0.68
2022-12-01T03:38:52.866Z,-0.73
2022-12-01T03:39:40.348Z,-0.71
2022-12-01T03:40:28.838Z,-0.64
2022-12-01T03:41:29.808Z,-0.61
2022-12-01T03:42:41.316Z,-0.72
2022-12-01T03:43:36.623Z,-0.73
2022-12-01T03:44:29.944Z,-0.64
2022-12-01T03:45:24.062Z,-0.61
2022-12-01T03:46:17.916Z,-0.56
2022-12-01T03:47:07.797Z,-0.54
2022-12-01T03:47:55.008Z,-0.63
2022-12-01T03:48:42.262Z,-0.62
2022-12-01T03:49:29.522Z,-0.60
2022-12-01T03:50:18.806Z,-0.57
2022-12-01T03:51:20.777Z,-0.57
2022-12-01T03:52:36.193Z,-0.58
2022-12-01T03:53:27.732Z,-0.57
2022-12-01T03:54:17.575Z,-0.63
2022-12-01T03:55:13.984Z,-0.60
2022-12-01T03:56:04.230Z,-0.52
2022-12-01T03:56:55.759Z,-0.62
2022-12-01T03:58:04.024Z,-0.63
2022-12-01T03:58:54.381Z,-0.53
2022-12-01T03:59:42.190Z,-0.49
2022-12-01T04:00:29.725Z,-0.50
2022-12-01T04:01:16.743Z,-0.60
2022-12-01T04:02:03.724Z,-0.63
2022-12-01T04:02:58.374Z,-0.64
2022-12-01T04:03:46.631Z,-0.63
2022-12-01T04:04:33.484Z,-0.60
2022-12-01T04:05:25.172Z,-0.59
2022-12-01T04:06:12.365Z,-0.64
2022-12-01T04:06:59.159Z,-0.59
2022-12-01T04:07:46.144Z,-0.52
2022-12-01T04:08:34.058Z,-0.54
2022-12-01T04:09:20.910Z,-0.54
2022-12-01T04:10:08.710Z,-0.52
2022-12-01T04:10:55.524Z,-0.52
2022-12-01T04:12:01.971Z,-0.54
2022-12-01T04:12:49.024Z,-0.53
2022-12-01T04:13:37.113Z,-0.63
2022-12-01T04:14:24.067Z,-0.66
2022-12-01T04:15:12.971Z,-0.63
2022-12-01T04:16:00.179Z,-0.60
2022-12-01T04:16:47.152Z,-0.58
2022-12-01T04:17:34.513Z,-0.57
2022-12-01T04:18:21.972Z,-0.58
2022-12-01T04:19:08.932Z,-0.60
2022-12-01T04:19:56.063Z,-0.62
2022-12-01T04:20:43.800Z,-0.60
2022-12-01T04:21:30.863Z,-0.77
2022-12-01T04:22:17.960Z,-0.82
2022-12-01T04:23:04.818Z,-0.76
2022-12-01T04:24:00.509Z,-0.73
2022-12-01T04:24:47.423Z,-0.70
2022-12-01T04:25:34.308Z,-0.76
2022-12-01T04:26:21.154Z,-0.81
2022-12-01T04:27:08.051Z,-0.79
2022-12-01T04:27:54.965Z,-0.83
2022-12-01T04:28:41.767Z,-0.82
2022-12-01T04:29:28.603Z,-0.87
2022-12-01T04:30:15.602Z,-0.90
2022-12-01T04:31:02.494Z,-0.90
2022-12-01T04:31:49.495Z,-0.82
2022-12-01T04:32:42.155Z,-0.85
2022-12-01T04:33:29.765Z,-0.82
2022-12-01T04:34:16.762Z,-0.90
2022-12-01T04:35:03.637Z,-0.97
2022-12-01T04:36:00.563Z,-0.98
2022-12-01T04:36:47.510Z,-0.91
2022-12-01T04:37:34.444Z,-0.86
2022-12-01T04:38:24.994Z,-0.88
2022-12-01T04:39:15.932Z,-0.88
2022-12-01T04:40:02.767Z,-0.94
2022-12-01T04:40:49.742Z,-0.94
2022-12-01T04:41:36.699Z,-1.03
2022-12-01T04:42:23.764Z,-1.09
2022-12-01T04:43:10.568Z,-1.06
2022-12-01T04:43:57.597Z,-1.07
2022-12-01T04:44:44.642Z,-1.13
2022-12-01T04:45:31.512Z,-1.06
2022-12-01T04:46:18.440Z,-1.04
2022-12-01T04:47:06.050Z,-1.01
2022-12-01T04:47:53.481Z,-0.98
2022-12-01T04:48:40.530Z,-0.96
2022-12-01T04:49:27.504Z,-1.08
2022-12-01T04:50:14.495Z,-1.09
2022-12-01T04:51:01.330Z,-1.12
2022-12-01T04:51:48.788Z,-1.16
2022-12-01T04:52:37.534Z,-1.18
2022-12-01T04:53:24.382Z,-1.19
2022-12-01T04:54:11.443Z,-1.17
2022-12-01T04:54:58.263Z,-1.18
2022-12-01T04:55:45.203Z,-1.24
2022-12-01T04:56:33.706Z,-1.16
2022-12-01T04:57:20.521Z,-1.06
2022-12-01T04:58:07.581Z,-1.12
2022-12-01T04:58:54.399Z,-1.22
2022-12-01T04:59:41.260Z,-1.24
2022-12-01T05:00:28.219Z,-1.14
2022-12-01T05:01:17.609Z,-1.13
2022-12-01T05:02:04.586Z,-1.17
2022-12-01T05:02:51.433Z,-1.20
2022-12-01T05:03:39.487Z,-1.23
2022-12-01T05:04:26.365Z,-1.23
2022-12-01T05:05:14.322Z,-1.18
2022-12-01T05:06:15.503Z,-1.12
2022-12-01T05:07:02.269Z,-1.20
2022-12-01T05:07:49.209Z,-1.25
2022-12-01T05:08:36.229Z,-1.16
2022-12-01T05:09:23.104Z,-1.14
2022-12-01T05:10:10.155Z,-1.08
2022-12-01T05:10:57.217Z,-1.08
2022-12-01T05:11:44.121Z,-1.12
2022-12-01T05:12:30.944Z,-1.17
2022-12-01T05:13:17.854Z,-1.20
2022-12-01T05:14:04.729Z,-1.16
2022-12-01T05:14:51.593Z,-1.18
2022-12-01T05:15:38.598Z,-1.24
2022-12-01T05:16:28.432Z,-1.18
2022-12-01T05:17:15.312Z,-1.21
2022-12-01T05:18:02.258Z,-1.19
2022-12-01T05:18:51.042Z,-1.17
2022-12-01T05:19:56.962Z,-1.15
2022-12-01T05:20:59.089Z,-1.13
2022-12-01T05:21:47.665Z,-1.05
2022-12-01T05:23:03.927Z,-1.05
2022-12-01T05:23:41.363Z,-1.03
2022-12-01T05:24:28.288Z,-1.05
2022-12-01T05:25:15.270Z,-0.97
2022-12-01T05:26:04.166Z,-0.95
2022-12-01T05:26:51.034Z,-1.06
2022-12-01T05:27:37.857Z,-1.03
2022-12-01T05:28:27.010Z,-1.02
2022-12-01T05:29:14.138Z,-1.05
2022-12-01T05:30:00.951Z,-1.12
2022-12-01T05:30:48.583Z,-1.11
2022-12-01T05:31:36.141Z,-1.08
2022-12-01T05:32:23.015Z,-1.13
2022-12-01T05:33:09.990Z,-1.13
2022-12-01T05:33:57.060Z,-1.11
2022-12-01T05:34:43.921Z,-1.09
2022-12-01T05:35:30.859Z,-1.17
2022-12-01T05:36:17.716Z,-1.17
2022-12-01T05:37:04.641Z,-1.17
2022-12-01T05:37:51.492Z,-1.16
2022-12-01T05:38:38.340Z,-1.14
2022-12-01T05:39:25.351Z,-1.11
2022-12-01T05:40:12.481Z,-1.06
2022-12-01T05:40:59.319Z,-1.05
2022-12-01T05:41:46.230Z,-1.06
2022-12-01T05:42:33.095Z,-1.09
2022-12-01T05:43:25.408Z,-1.09
2022-12-01T05:44:15.681Z,-1.21
2022-12-01T05:45:02.571Z,-1.19
2022-12-01T05:45:52.173Z,-1.27
2022-12-01T05:46:39.011Z,-1.33
2022-12-01T05:47:25.832Z,-1.31
2022-12-01T05:48:12.664Z,-1.35
2022-12-01T05:48:59.553Z,-1.37
2022-12-01T05:49:46.590Z,-1.41
2022-12-01T05:50:33.790Z,-1.51
2022-12-01T05:51:20.691Z,-1.50
2022-12-01T05:52:07.503Z,-1.51
2022-12-01T05:52:54.397Z,-1.54
2022-12-01T05:53:41.283Z,-1.58
2022-12-01T05:54:30.677Z,-1.59
2022-12-01T05:55:17.681Z,-1.63
2022-12-01T05:56:05.440Z,-1.59
2022-12-01T05:56:52.353Z,-1.62
2022-12-01T05:57:39.430Z,-1.56
2022-12-01T05:58:26.329Z,-1.52
2022-12-01T05:59:13.246Z,-1.54
2022-12-01T06:00:00.533Z,-1.61
2022-12-01T06:00:47.487Z,-1.62
2022-12-01T06:01:34.443Z,-1.59
2022-12-01T06:02:21.495Z,-1.57
2022-12-01T06:03:08.428Z,-1.58
2022-12-01T06:03:55.405Z,-1.55
2022-12-01T06:04:42.307Z,-1.57
2022-12-01T06:05:29.571Z,-1.57
2022-12-01T06:06:16.509Z,-1.58
2022-12-01T06:07:03.535Z,-1.50
2022-12-01T06:07:50.534Z,-1.50
2022-12-01T06:08:37.636Z,-1.50
2022-12-01T06:09:24.460Z,-1.50
2022-12-01T06:10:12.216Z,-1.56
2022-12-01T06:10:59.264Z,-1.57
2022-12-01T06:11:49.017Z,-1.64
2022-12-01T06:12:39.269Z,-1.65
2022-12-01T06:13:26.375Z,-1.65
2022-12-01T06:14:13.270Z,-1.59
2022-12-01T06:15:00.475Z,-1.56
2022-12-01T06:15:56.455Z,-1.58
2022-12-01T06:16:43.334Z,-1.58
2022-12-01T06:17:30.286Z,-1.52
2022-12-01T06:18:17.208Z,-1.51
2022-12-01T06:19:04.096Z,-1.46
2022-12-01T06:19:51.203Z,-1.49
2022-12-01T06:20:38.448Z,-1.49
2022-12-01T06:21:25.362Z,-1.65
2022-12-01T06:22:12.422Z,-1.63
2022-12-01T06:22:59.810Z,-1.73
2022-12-01T06:23:46.691Z,-1.74
2022-12-01T06:24:33.563Z,-1.75
2022-12-01T06:25:20.620Z,-1.81
2022-12-01T06:26:07.693Z,-1.82
2022-12-01T06:26:54.633Z,-1.83
2022-12-01T06:27:41.570Z,-1.88
2022-12-01T06:28:28.529Z,-1.83
2022-12-01T06:29:15.361Z,-1.90
2022-12-01T06:30:02.606Z,-1.86
2022-12-01T06:30:49.496Z,-1.86
2022-12-01T06:31:36.621Z,-1.76
2022-12-01T06:32:23.700Z,-1.68
2022-12-01T06:33:10.569Z,-1.68
2022-12-01T06:33:57.370Z,-1.69
2022-12-01T06:34:44.300Z,-1.68
2022-12-01T06:35:31.158Z,-1.67
2022-12-01T06:36:18.169Z,-1.75
2022-12-01T06:37:05.066Z,-1.77
2022-12-01T06:37:54.495Z,-1.79
2022-12-01T06:38:41.368Z,-1.76
2022-12-01T06:39:28.253Z,-1.79
2022-12-01T06:40:15.192Z,-1.78
2022-12-01T06:41:02.229Z,-1.82
2022-12-01T06:41:49.505Z,-1.81
2022-12-01T06:42:36.333Z,-1.79
2022-12-01T06:43:23.202Z,-1.78
2022-12-01T06:44:10.884Z,-1.81
2022-12-01T06:44:57.874Z,-1.77
2022-12-01T06:45:44.859Z,-1.73
2022-12-01T06:46:31.951Z,-1.74
2022-12-01T06:47:18.900Z,-1.71
2022-12-01T06:48:05.861Z,-1.71
2022-12-01T06:48:53.321Z,-1.70
2022-12-01T06:49:40.335Z,-1.80
2022-12-01T06:50:27.279Z,-1.86
2022-12-01T06:51:14.202Z,-1.78
2022-12-01T06:52:01.291Z,-1.80
2022-12-01T06:52:48.215Z,-1.77
2022-12-01T06:53:35.154Z,-1.76
2022-12-01T06:54:22.155Z,-1.78
2022-12-01T06:55:09.436Z,-1.77
2022-12-01T06:56:03.595Z,-1.71
2022-12-01T06:56:50.746Z,-1.60
2022-12-01T06:57:37.866Z,-1.60
2022-12-01T06:58:25.138Z,-1.62
2022-12-01T06:59:12.568Z,-1.60
2022-12-01T06:59:59.938Z,-1.62
2022-12-01T07:00:51.858Z,-1.64
2022-12-01T07:01:39.395Z,-1.65
2022-12-01T07:02:26.385Z,-1.53
2022-12-01T07:03:13.564Z,-1.60
2022-12-01T07:04:01.055Z,-1.62
2022-12-01T07:04:47.928Z,-1.57
2022-12-01T07:05:34.808Z,-1.51
2022-12-01T07:06:21.855Z,-1.51
2022-12-01T07:07:08.828Z,-1.53
2022-12-01T07:07:59.432Z,-1.56
2022-12-01T07:08:47.002Z,-1.51
2022-12-01T07:09:34.422Z,-1.51
2022-12-01T07:10:21.740Z,-1.45
2022-12-01T07:11:12.696Z,-1.40
2022-12-01T07:11:59.645Z,-1.46
2022-12-01T07:12:46.609Z,-1.40
2022-12-01T07:13:34.550Z,-1.44
2022-12-01T07:14:25.409Z,-1.45
2022-12-01T07:15:12.391Z,-1.44
2022-12-01T07:15:59.386Z,-1.33
2022-12-01T07:16:46.439Z,-1.18
2022-12-01T07:17:34.063Z,-1.23
2022-12-01T07:18:21.050Z,-1.20
2022-12-01T07:19:08.080Z,-1.13
2022-12-01T07:19:55.004Z,-1.04
2022-12-01T07:20:41.960Z,-0.97
2022-12-01T07:21:28.864Z,-0.82
2022-12-01T07:22:16.188Z,-0.69
2022-12-01T07:23:03.074Z,-0.71
2022-12-01T07:23:49.900Z,-0.68
2022-12-01T07:24:36.824Z,-0.68
2022-12-01T07:25:23.723Z,-0.65
2022-12-01T07:26:16.125Z,-0.60
2022-12-01T07:27:02.934Z,-0.53
2022-12-01T07:27:49.867Z,-0.54
2022-12-01T07:28:36.787Z,-0.44
2022-12-01T07:29:23.689Z,-0.20
2022-12-01T07:30:10.993Z,-0.16
2022-12-01T07:31:07.887Z,-0.13
2022-12-01T07:31:55.179Z,-0.14
2022-12-01T07:32:42.100Z,-0.12
2022-12-01T07:33:28.937Z,-0.03
2022-12-01T07:34:15.914Z,0.13
2022-12-01T07:35:02.862Z,0.15
2022-12-01T07:35:49.750Z,0.13
2022-12-01T07:36:36.653Z,0.20
2022-12-01T07:37:23.493Z,0.11
2022-12-01T07:38:10.404Z,0.12
2022-12-01T07:38:57.399Z,0.20
2022-12-01T07:39:44.331Z,0.26
2022-12-01T07:40:31.215Z,0.27
2022-12-01T07:41:19.477Z,0.31
2022-12-01T07:42:06.432Z,0.40
2022-12-01T07:42:53.351Z,0.40
2022-12-01T07:43:40.753Z,0.40
2022-12-01T07:44:27.741Z,0.49
2022-12-01T07:45:14.787Z,0.54
2022-12-01T07:46:09.121Z,0.55
2022-12-01T07:46:56.107Z,0.55
2022-12-01T07:47:44.665Z,0.57
2022-12-01T07:48:31.552Z,0.63
2022-12-01T07:49:18.629Z,0.63
2022-12-01T07:50:06.170Z,0.68
2022-12-01T07:50:56.016Z,0.80
2022-12-01T07:51:43.083Z,0.81
2022-12-01T07:52:29.991Z,0.80
2022-12-01T07:53:16.849Z,0.85
2022-12-01T07:54:05.760Z,0.86
2022-12-01T07:54:52.990Z,0.90
2022-12-01T07:55:39.830Z,0.99
2022-12-01T07:56:26.693Z,1.12
2022-12-01T07:57:14.979Z,1.18
2022-12-01T07:58:01.939Z,1.20
2022-12-01T07:58:49.125Z,1.33
2022-12-01T07:59:36.002Z,1.43
2022-12-01T08:00:22.998Z,1.52
2022-12-01T08:01:12.734Z,1.42
2022-12-01T08:01:59.763Z,1.40
2022-12-01T08:02:49.343Z,1.39
2022-12-01T08:03:37.108Z,1.43
2022-12-01T08:04:24.095Z,1.43
2022-12-01T08:05:11.021Z,1.41
2022-12-01T08:06:01.852Z,1.49
2022-12-01T08:06:48.810Z,1.56
2022-12-01T08:07:36.665Z,1.59
2022-12-01T08:08:23.558Z,1.59
2022-12-01T08:09:10.434Z,1.75
2022-12-01T08:09:57.410Z,1.80
2022-12-01T08:10:44.275Z,1.89
2022-12-01T08:11:31.203Z,1.96
2022-12-01T08:12:18.167Z,1.91
2022-12-01T08:13:05.124Z,1.95
2022-12-01T08:13:53.316Z,2.01
2022-12-01T08:14:40.142Z,2.09
2022-12-01T08:15:26.996Z,2.11
2022-12-01T08:16:16.164Z,2.14
2022-12-01T08:17:03.074Z,2.16
2022-12-01T08:17:49.987Z,2.20
2022-12-01T08:18:38.635Z,2.22
2022-12-01T08:19:26.073Z,2.18
2022-12-01T08:20:13.073Z,2.21
2022-12-01T08:20:59.917Z,2.31
2022-12-01T08:21:46.813Z,2.34
2022-12-01T08:22:33.794Z,2.37
2022-12-01T08:23:20.694Z,2.51
2022-12-01T08:24:07.846Z,2.54
2022-12-01T08:24:54.740Z,2.50
2022-12-01T08:25:41.633Z,2.53
2022-12-01T08:26:28.490Z,2.49
2022-12-01T08:27:15.533Z,2.53
2022-12-01T08:28:02.529Z,2.57
2022-12-01T08:28:49.844Z,2.58
2022-12-01T08:29:36.719Z,2.74
2022-12-01T08:30:23.842Z,2.76
2022-12-01T08:31:20.952Z,2.78
2022-12-01T08:32:08.380Z,2.85
2022-12-01T08:32:56.916Z,3.00
2022-12-01T08:33:43.876Z,2.98
2022-12-01T08:34:30.755Z,3.04
2022-12-01T08:35:17.709Z,3.06
2022-12-01T08:36:05.792Z,3.08
2022-12-01T08:36:52.705Z,3.15
2022-12-01T08:37:39.589Z,3.23
2022-12-01T08:38:26.487Z,3.29
2022-12-01T08:39:13.490Z,3.35
2022-12-01T08:40:00.678Z,3.46
2022-12-01T08:40:47.790Z,3.53
2022-12-01T08:41:34.942Z,3.58
2022-12-01T08:42:21.975Z,3.64
2022-12-01T08:43:12.362Z,3.72
2022-12-01T08:44:05.644Z,3.87
2022-12-01T08:44:55.464Z,3.97
2022-12-01T08:45:42.584Z,4.04
2022-12-01T08:46:32.913Z,4.08
2022-12-01T08:47:19.860Z,4.14
2022-12-01T08:48:06.685Z,4.20
2022-12-01T08:48:55.205Z,4.23
2022-12-01T08:49:42.076Z,4.32
2022-12-01T08:50:29.261Z,4.40
2022-12-01T08:51:18.125Z,4.43
2022-12-01T08:52:04.946Z,4.45
2022-12-01T08:52:51.866Z,4.42
2022-12-01T08:53:45.440Z,4.50
2022-12-01T08:54:32.782Z,4.57
2022-12-01T08:55:20.738Z,4.61
2022-12-01T08:56:29.304Z,4.62
2022-12-01T08:57:16.043Z,4.54
2022-12-01T08:58:02.846Z,4.57
2022-12-01T08:58:51.196Z,4.63
2022-12-01T08:59:38.019Z,4.64
2022-12-01T09:00:24.930Z,4.56
2022-12-01T09:01:15.749Z,4.66
2022-12-01T09:02:06.915Z,4.60
2022-12-01T09:02:54.222Z,4.63
2022-12-01T09:03:41.778Z,4.67
2022-12-01T09:04:28.843Z,4.59
2022-12-01T09:05:15.824Z,4.69
2022-12-01T09:06:20.504Z,4.67
2022-12-01T09:07:10.849Z,4.61
2022-12-01T09:08:18.074Z,4.52
2022-12-01T09:09:05.398Z,4.55
2022-12-01T09:09:52.300Z,4.50
2022-12-01T09:10:39.258Z,4.55
2022-12-01T09:11:26.603Z,4.61
2022-12-01T09:12:13.572Z,4.58
2022-12-01T09:13:00.747Z,4.63
2022-12-01T09:13:53.020Z,4.59
2022-12-01T09:14:46.249Z,4.59
2022-12-01T09:15:33.210Z,4.63
2022-12-01T09:16:20.236Z,4.65
2022-12-01T09:17:07.948Z,4.67
2022-12-01T09:17:55.246Z,4.62
2022-12-01T09:18:42.973Z,4.67
2022-12-01T09:19:30.242Z,4.67
2022-12-01T09:20:17.113Z,4.70
2022-12-01T09:21:30.964Z,4.64
2022-12-01T09:22:18.096Z,4.78
2022-12-01T09:23:05.085Z,4.86
2022-12-01T09:23:52.272Z,4.80
2022-12-01T09:24:39.655Z,4.88
2022-12-01T09:25:26.603Z,4.89
2022-12-01T09:26:18.379Z,4.81
2022-12-01T09:27:05.551Z,4.90
2022-12-01T09:27:52.527Z,4.93
2022-12-01T09:28:39.528Z,4.94
2022-12-01T09:29:26.677Z,5.03
2022-12-01T09:30:13.848Z,4.99
2022-12-01T09:31:08.905Z,4.94
2022-12-01T09:31:59.995Z,4.86
2022-12-01T09:32:47.083Z,4.94
2022-12-01T09:33:34.320Z,5.04
2022-12-01T09:34:21.393Z,5.09
2022-12-01T09:35:08.530Z,5.12
2022-12-01T09:35:59.718Z,5.10
2022-12-01T09:36:47.788Z,5.12
2022-12-01T09:37:34.636Z,5.10
2022-12-01T09:38:21.469Z,5.12
2022-12-01T09:39:10.814Z,5.05
2022-12-01T09:39:57.652Z,5.00
2022-12-01T09:40:44.662Z,5.08
2022-12-01T09:41:34.743Z,5.10
2022-12-01T09:42:32.222Z,5.12
2022-12-01T09:43:23.514Z,5.19
2022-12-01T09:44:23.116Z,5.27
2022-12-01T09:45:22.785Z,5.31
2022-12-01T09:46:14.894Z,5.29
2022-12-01T09:47:05.024Z,5.19
2022-12-01T09:47:54.386Z,5.11
2022-12-01T09:48:46.437Z,5.15
2022-12-01T09:49:55.756Z,5.12
2022-12-01T09:50:43.927Z,5.11
2022-12-01T09:51:34.949Z,5.10
2022-12-01T09:52:23.925Z,5.16
2022-12-01T09:53:15.960Z,5.17
2022-12-01T09:54:03.484Z,5.23
2022-12-01T09:54:50.976Z,5.25
2022-12-01T09:55:39.864Z,5.28
2022-12-01T09:56:30.612Z,5.29
2022-12-01T09:57:33.094Z,5.44
2022-12-01T09:58:27.053Z,5.45
2022-12-01T09:59:19.370Z,5.44
2022-12-01T10:00:25.156Z,5.48
2022-12-01T10:01:16.692Z,5.48
2022-12-01T10:02:13.860Z,5.45
2022-12-01T10:03:09.992Z,5.51
2022-12-01T10:04:00.155Z,5.59
2022-12-01T10:04:48.680Z,5.63
2022-12-01T10:07:16.222Z,5.68
2022-12-01T10:08:06.305Z,5.73
2022-12-01T10:09:17.779Z,5.77
2022-12-01T10:10:11.441Z,5.81
2022-12-01T10:11:04.826Z,5.70
2022-12-01T10:11:55.446Z,5.80
2022-12-01T10:12:42.536Z,5.76
2022-12-01T10:13:29.723Z,5.82
2022-12-01T10:14:20.669Z,5.84
2022-12-01T10:15:18.715Z,5.79
2022-12-01T10:16:14.049Z,5.87
2022-12-01T10:17:07.059Z,5.91
2022-12-01T10:18:18.355Z,5.95
2022-12-01T10:19:29.158Z,6.00
2022-12-01T10:20:27.242Z,6.07
2022-12-01T10:21:32.805Z,6.04
2022-12-01T10:22:56.859Z,6.18
2022-12-01T10:23:57.261Z,6.15
2022-12-01T10:25:07.783Z,6.24
2022-12-01T10:25:59.535Z,6.39
2022-12-01T10:27:02.641Z,6.50
2022-12-01T10:28:10.727Z,6.57
2022-12-01T10:29:03.489Z,6.61
2022-12-01T10:30:18.703Z,6.53
2022-12-01T10:31:44.049Z,6.48
2022-12-01T10:32:58.463Z,6.69
2022-12-01T10:34:13.386Z,6.70
2022-12-01T10:35:00.225Z,6.75
2022-12-01T10:35:47.323Z,6.82
2022-12-01T10:36:34.980Z,6.84
2022-12-01T10:37:24.468Z,6.78
2022-12-01T10:38:23.151Z,6.71
2022-12-01T10:39:18.974Z,6.71
2022-12-01T10:40:06.599Z,6.84
2022-12-01T10:40:54.818Z,6.88
2022-12-01T10:41:41.858Z,6.86
2022-12-01T10:42:34.461Z,6.95
2022-12-01T10:43:31.832Z,7.05
2022-12-01T10:44:19.237Z,7.04
2022-12-01T10:45:10.856Z,6.97
2022-12-01T10:45:59.031Z,6.95
2022-12-01T10:46:55.727Z,6.80
2022-12-01T10:48:20.697Z,6.81
2022-12-01T10:49:10.853Z,6.79
2022-12-01T10:49:58.285Z,6.83
2022-12-01T10:50:47.716Z,6.86
2022-12-01T10:51:53.587Z,6.77
2022-12-01T10:52:42.071Z,6.73
2022-12-01T10:53:37.519Z,6.82
2022-12-01T10:54:32.989Z,6.92
2022-12-01T10:55:22.738Z,6.97
2022-12-01T10:56:16.641Z,7.12
2022-12-01T10:57:04.447Z,7.21
2022-12-01T10:57:53.034Z,7.13
2022-12-01T10:58:51.314Z,7.12
2022-12-01T10:59:58.346Z,7.16
2022-12-01T11:01:05.655Z,7.27
2022-12-01T11:01:53.547Z,7.41
2022-12-01T11:02:43.912Z,7.37
2022-12-01T11:03:33.626Z,7.22
2022-12-01T11:04:32.773Z,7.32
2022-12-01T11:05:28.330Z,7.20
2022-12-01T11:06:22.132Z,7.21
2022-12-01T11:07:15.812Z,7.28
2022-12-01T11:08:02.988Z,7.18
2022-12-01T11:08:57.511Z,7.26
2022-12-01T11:09:46.018Z,7.39
2022-12-01T11:10:34.005Z,7.46
2022-12-01T11:11:36.852Z,7.36
2022-12-01T11:12:23.837Z,7.30